createdAt,value
2019-01-21T00:00:43.059Z,33.70
2019-01-21T00:03:14.803Z,28.70
2019-01-21T00:05:41.831Z,33.27
2019-01-21T00:08:13.100Z,29.33
2019-01-21T00:10:42.868Z,32.90
2019-01-21T00:13:11.360Z,38.20
2019-01-21T00:15:39.867Z,35.70
2019-01-21T00:18:08.342Z,33.73
2019-01-21T00:20:36.789Z,38.27
2019-01-21T00:23:05.319Z,38.63
2019-01-21T00:25:33.835Z,34.90
2019-01-21T00:28:02.326Z,33.23
2019-01-21T00:30:30.750Z,33.73
2019-01-21T00:32:59.178Z,39.60
2019-01-21T00:35:27.670Z,33.97
2019-01-21T00:37:56.112Z,39.47
2019-01-21T00:40:24.555Z,32.77
2019-01-21T00:42:52.987Z,37.13
2019-01-21T00:45:21.427Z,36.17
2019-01-21T00:47:49.879Z,33.47
2019-01-21T00:50:18.331Z,31.57
2019-01-21T00:52:46.713Z,39.67
2019-01-21T00:55:15.228Z,37.80
2019-01-21T00:57:43.767Z,34.93
2019-01-21T01:00:16.991Z,35.53
2019-01-21T01:02:45.432Z,37.37
2019-01-21T01:05:14.797Z,34.13
2019-01-21T01:07:43.277Z,35.17
2019-01-21T01:10:12.047Z,34.10
2019-01-21T01:12:40.549Z,37.17
2019-01-21T01:15:09.451Z,32.80
2019-01-21T01:17:37.920Z,35.10
2019-01-21T01:20:08.188Z,33.47
2019-01-21T01:22:36.586Z,31.90
2019-01-21T01:25:05.843Z,34.60
2019-01-21T01:27:34.376Z,34.37
2019-01-21T01:30:02.859Z,37.67
2019-01-21T01:32:31.300Z,32.67
2019-01-21T01:34:59.659Z,32.37
2019-01-21T01:37:28.111Z,36.47
2019-01-21T01:39:56.533Z,38.23
2019-01-21T01:42:24.973Z,35.60
2019-01-21T01:44:53.439Z,36.23
2019-01-21T01:47:21.886Z,34.23
2019-01-21T01:49:50.359Z,36.53
2019-01-21T01:52:18.840Z,33.07
2019-01-21T01:54:47.275Z,36.33
2019-01-21T01:57:15.719Z,33.40
2019-01-21T01:59:44.200Z,38.93
2019-01-21T02:02:12.699Z,32.43
2019-01-21T02:04:41.160Z,34.93
2019-01-21T02:07:09.625Z,36.23
2019-01-21T02:09:38.079Z,35.83
2019-01-21T02:12:06.639Z,35.17
2019-01-21T02:14:35.099Z,35.13
2019-01-21T02:17:03.551Z,36.10
2019-01-21T02:19:32.359Z,38.37
2019-01-21T02:22:01.077Z,38.13
2019-01-21T02:24:33.659Z,33.17
2019-01-21T02:27:07.479Z,42.63
2019-01-21T02:30:01.026Z,38.03
2019-01-21T02:32:40.835Z,39.33
2019-01-21T02:35:21.138Z,37.07
2019-01-21T02:38:07.408Z,41.27
2019-01-21T02:40:47.856Z,38.10
2019-01-21T02:43:34.342Z,35.93
2019-01-21T02:46:11.644Z,36.23
2019-01-21T02:48:44.561Z,40.10
2019-01-21T02:51:27.243Z,32.40
2019-01-21T02:54:07.136Z,39.00
2019-01-21T02:56:53.615Z,33.87
2019-01-21T02:59:59.627Z,32.10
2019-01-21T03:02:59.439Z,36.37
2019-01-21T03:05:32.047Z,36.10
2019-01-21T03:08:22.675Z,37.57
2019-01-21T03:11:16.094Z,38.87
2019-01-21T03:13:48.255Z,38.37
2019-01-21T03:16:29.949Z,34.03
2019-01-21T03:19:20.287Z,40.57
2019-01-21T03:22:11.755Z,36.80
2019-01-21T03:25:02.143Z,34.53
2019-01-21T03:28:01.998Z,36.97
2019-01-21T03:30:52.356Z,41.43
2019-01-21T03:33:38.576Z,39.50
2019-01-21T03:36:15.701Z,36.63
2019-01-21T03:39:09.358Z,31.93
2019-01-21T03:41:56.955Z,39.47
2019-01-21T03:44:47.596Z,37.93
2019-01-21T03:47:34.199Z,39.77
2019-01-21T03:50:34.081Z,36.10
2019-01-21T03:53:09.271Z,37.60
2019-01-21T03:55:37.719Z,36.03
2019-01-21T03:58:14.255Z,39.57
2019-01-21T04:01:16.999Z,34.67
2019-01-21T04:03:50.224Z,34.73
2019-01-21T04:06:24.308Z,39.60
2019-01-21T04:09:14.708Z,36.30
2019-01-21T04:12:06.523Z,40.57
2019-01-21T04:15:00.463Z,38.87
2019-01-21T04:18:03.207Z,38.43
2019-01-21T04:20:53.931Z,39.27
2019-01-21T04:23:56.934Z,36.40
2019-01-21T04:26:30.914Z,45.53
2019-01-21T04:29:03.527Z,42.67
2019-01-21T04:31:57.398Z,41.23
2019-01-21T04:34:36.124Z,43.93
2019-01-21T04:37:40.289Z,36.77
2019-01-21T04:40:26.847Z,36.00
2019-01-21T04:43:14.940Z,33.20
2019-01-21T04:45:50.815Z,36.63
2019-01-21T04:48:38.919Z,38.83
2019-01-21T04:51:15.672Z,39.67
2019-01-21T04:53:57.263Z,41.03
2019-01-21T04:56:46.563Z,37.67
2019-01-21T04:59:34.139Z,43.03
2019-01-21T05:02:16.712Z,41.37
2019-01-21T05:04:55.099Z,38.73
2019-01-21T05:07:42.718Z,36.73
2019-01-21T05:10:25.028Z,39.77
2019-01-21T05:13:07.324Z,38.50
2019-01-21T05:15:56.390Z,44.30
2019-01-21T05:18:45.248Z,38.90
2019-01-21T05:21:28.351Z,40.20
2019-01-21T05:24:15.938Z,42.53
2019-01-21T05:26:50.528Z,36.40
2019-01-21T05:29:36.898Z,41.03
2019-01-21T05:32:25.111Z,47.97
2019-01-21T05:35:11.554Z,46.80
2019-01-21T05:37:51.726Z,43.83
2019-01-21T05:40:28.831Z,38.57
2019-01-21T05:43:19.300Z,44.40
2019-01-21T05:45:56.077Z,43.50
2019-01-21T05:48:33.367Z,42.83
2019-01-21T05:51:26.978Z,41.93
2019-01-21T05:54:13.479Z,40.23
2019-01-21T05:57:16.339Z,44.20
2019-01-21T06:00:05.342Z,46.37
2019-01-21T06:03:05.020Z,41.60
2019-01-21T06:05:49.447Z,42.00
2019-01-21T06:08:38.523Z,43.93
2019-01-21T06:11:28.877Z,54.27
2019-01-21T06:14:03.342Z,41.97
2019-01-21T06:16:35.815Z,46.10
2019-01-21T06:19:26.321Z,47.73
2019-01-21T06:22:12.733Z,46.00
2019-01-21T06:24:50.935Z,41.20
2019-01-21T06:27:39.078Z,43.33
2019-01-21T06:30:26.641Z,44.50
2019-01-21T06:33:13.085Z,49.87
2019-01-21T06:36:00.508Z,50.27
2019-01-21T06:38:46.969Z,55.08
2019-01-21T06:41:40.642Z,50.73
2019-01-21T06:44:20.582Z,44.43
2019-01-21T06:47:16.516Z,48.80
2019-01-21T06:50:03.276Z,51.53
2019-01-21T06:53:03.232Z,46.43
2019-01-21T06:55:53.988Z,49.33
2019-01-21T06:58:44.750Z,54.23
2019-01-21T07:01:31.028Z,48.63
2019-01-21T07:04:21.623Z,46.50
2019-01-21T07:07:08.035Z,49.23
2019-01-21T07:10:04.470Z,48.83
2019-01-21T07:12:48.935Z,46.80
2019-01-21T07:15:38.499Z,47.43
2019-01-21T07:18:26.210Z,46.73
2019-01-21T07:21:16.786Z,46.30
2019-01-21T07:24:04.396Z,45.90
2019-01-21T07:26:42.725Z,52.80
2019-01-21T07:29:36.136Z,49.93
2019-01-21T07:32:14.988Z,46.70
2019-01-21T07:34:54.840Z,51.10
2019-01-21T07:37:48.567Z,39.70
2019-01-21T07:40:34.275Z,44.40
2019-01-21T07:43:20.770Z,48.30
2019-01-21T07:45:52.350Z,46.50
2019-01-21T07:48:30.143Z,52.77
2019-01-21T07:51:23.687Z,54.73
2019-01-21T07:54:23.440Z,44.80
2019-01-21T07:57:02.851Z,48.83
2019-01-21T08:00:05.551Z,55.40
2019-01-21T08:02:43.460Z,51.87
2019-01-21T08:05:24.812Z,46.40
2019-01-21T08:08:18.441Z,50.03
2019-01-21T08:10:56.891Z,49.43
2019-01-21T08:13:43.176Z,49.00
2019-01-21T08:16:18.963Z,47.43
2019-01-21T08:18:53.399Z,55.97
2019-01-21T08:21:39.512Z,48.77
2019-01-21T08:24:26.748Z,43.30
2019-01-21T08:27:17.183Z,44.13
2019-01-21T08:29:53.038Z,48.10
2019-01-21T08:32:27.531Z,50.43
2019-01-21T08:35:18.625Z,55.50
2019-01-21T08:37:57.523Z,48.47
2019-01-21T08:40:47.395Z,47.43
2019-01-21T08:43:45.765Z,56.67
2019-01-21T08:46:36.193Z,52.27
2019-01-21T08:49:40.012Z,52.87
2019-01-21T08:52:22.493Z,50.17
2019-01-21T08:55:26.672Z,46.13
2019-01-21T08:58:07.515Z,49.27
2019-01-21T09:00:53.604Z,49.10
2019-01-21T09:03:29.476Z,53.20
2019-01-21T09:06:19.914Z,54.53
2019-01-21T09:09:10.408Z,52.30
2019-01-21T09:11:55.473Z,47.13
2019-01-21T09:14:43.631Z,52.27
2019-01-21T09:17:35.768Z,44.70
2019-01-21T09:20:32.571Z,44.77
2019-01-21T09:23:31.309Z,47.27
2019-01-21T09:26:20.767Z,46.37
2019-01-21T09:28:56.339Z,49.83
2019-01-21T09:31:27.822Z,47.37
2019-01-21T09:34:14.625Z,50.57
2019-01-21T09:36:52.102Z,58.93
2019-01-21T09:39:31.145Z,51.93
2019-01-21T09:42:20.777Z,47.00
2019-01-21T09:44:56.979Z,44.97
2019-01-21T09:47:24.663Z,42.57
2019-01-21T09:49:55.013Z,47.60
2019-01-21T09:52:26.629Z,45.87
2019-01-21T09:54:55.283Z,41.33
2019-01-21T09:57:25.032Z,45.83
2019-01-21T09:59:57.228Z,42.33
2019-01-21T10:02:47.133Z,43.87
2019-01-21T10:05:16.401Z,42.80
2019-01-21T10:08:12.815Z,40.07
2019-01-21T10:11:03.746Z,39.90
2019-01-21T10:13:48.107Z,33.60
2019-01-21T10:16:27.303Z,39.10
2019-01-21T10:19:14.875Z,48.63
2019-01-21T10:21:57.283Z,44.60
2019-01-21T10:24:50.806Z,37.27
2019-01-21T10:27:37.242Z,33.33
2019-01-21T10:30:24.883Z,41.43
2019-01-21T10:33:15.631Z,37.80
2019-01-21T10:36:03.175Z,38.20
2019-01-21T10:38:57.432Z,36.83
2019-01-21T10:41:47.015Z,35.80
2019-01-21T10:44:23.861Z,35.53
2019-01-21T10:47:07.310Z,39.03
2019-01-21T10:50:13.592Z,31.43
2019-01-21T10:52:49.243Z,38.23
2019-01-21T10:55:25.936Z,41.43
2019-01-21T10:57:57.439Z,31.87
2019-01-21T11:00:48.032Z,38.70
2019-01-21T11:03:26.619Z,35.23
2019-01-21T11:05:59.048Z,38.83
2019-01-21T11:08:39.730Z,38.73
2019-01-21T11:11:33.196Z,37.57
2019-01-21T11:14:26.331Z,34.10
2019-01-21T11:17:23.228Z,37.20
2019-01-21T11:20:16.880Z,40.97
2019-01-21T11:23:04.523Z,33.63
2019-01-21T11:25:58.503Z,33.20
2019-01-21T11:28:34.275Z,36.63
2019-01-21T11:31:23.649Z,37.57
2019-01-21T11:34:17.273Z,36.20
2019-01-21T11:37:07.639Z,34.87
2019-01-21T11:39:44.022Z,33.07
2019-01-21T11:42:28.827Z,38.80
2019-01-21T11:45:14.150Z,42.17
2019-01-21T11:47:56.804Z,40.43
2019-01-21T11:50:36.043Z,35.60
2019-01-21T11:53:29.560Z,34.10
2019-01-21T11:56:19.987Z,32.60
2019-01-21T11:59:07.659Z,37.77
2019-01-21T12:02:04.235Z,41.70
2019-01-21T12:04:50.599Z,30.30
2019-01-21T12:07:29.860Z,38.70
2019-01-21T12:10:20.459Z,36.50
2019-01-21T12:12:53.505Z,32.17
2019-01-21T12:15:26.367Z,36.30
2019-01-21T12:18:17.134Z,37.80
2019-01-21T12:21:16.731Z,39.60
2019-01-21T12:24:05.360Z,38.23
2019-01-21T12:26:53.892Z,40.30
2019-01-21T12:29:40.235Z,37.27
2019-01-21T12:32:14.547Z,39.13
2019-01-21T12:34:54.030Z,35.53
2019-01-21T12:37:34.083Z,38.93
2019-01-21T12:40:09.896Z,34.83
2019-01-21T12:42:54.907Z,38.90
2019-01-21T12:45:30.410Z,39.83
2019-01-21T12:48:02.843Z,37.80
2019-01-21T12:51:00.861Z,37.03
2019-01-21T12:53:55.439Z,28.43
2019-01-21T12:56:45.343Z,35.50
2019-01-21T12:59:27.861Z,33.37
2019-01-21T13:02:27.255Z,38.73
2019-01-21T13:05:01.767Z,33.07
2019-01-21T13:07:39.391Z,33.60
2019-01-21T13:10:32.904Z,34.00
2019-01-21T13:13:29.599Z,35.40
2019-01-21T13:16:16.136Z,33.83
2019-01-21T13:18:52.756Z,35.73
2019-01-21T13:21:34.770Z,35.30
2019-01-21T13:24:11.871Z,41.30
2019-01-21T13:26:59.642Z,40.07
2019-01-21T13:29:48.888Z,38.70
2019-01-21T13:32:42.479Z,36.57
2019-01-21T13:35:30.059Z,32.23
2019-01-21T13:38:26.968Z,35.23
2019-01-21T13:41:11.500Z,38.80
2019-01-21T13:44:02.119Z,38.10
2019-01-21T13:46:49.799Z,35.70
2019-01-21T13:49:21.287Z,43.00
2019-01-21T13:52:01.916Z,38.57
2019-01-21T13:54:48.247Z,40.13
2019-01-21T13:57:34.591Z,39.63
2019-01-21T14:00:37.287Z,37.50
2019-01-21T14:03:37.578Z,35.87
2019-01-21T14:06:23.799Z,41.23
2019-01-21T14:09:11.375Z,36.17
2019-01-21T14:12:14.339Z,44.93
2019-01-21T14:14:51.011Z,36.87
2019-01-21T14:17:25.891Z,36.77
2019-01-21T14:20:16.860Z,30.03
2019-01-21T14:23:00.028Z,36.53
2019-01-21T14:25:40.284Z,35.20
2019-01-21T14:28:19.291Z,33.07
2019-01-21T14:30:55.877Z,38.97
2019-01-21T14:33:30.256Z,33.80
2019-01-21T14:36:26.900Z,33.07
2019-01-21T14:39:17.487Z,29.40
2019-01-21T14:42:02.053Z,29.10
2019-01-21T14:44:48.339Z,23.37
2019-01-21T14:47:35.153Z,24.17
2019-01-21T14:50:11.216Z,26.20
2019-01-21T14:53:07.868Z,27.67
2019-01-21T14:55:43.847Z,29.97
2019-01-21T14:58:43.767Z,28.37
2019-01-21T15:01:32.507Z,30.83
2019-01-21T15:04:20.392Z,28.33
2019-01-21T15:06:52.648Z,31.33
2019-01-21T15:09:24.380Z,31.47
2019-01-21T15:12:14.840Z,32.13
2019-01-21T15:14:50.421Z,34.90
2019-01-21T15:17:44.236Z,32.37
2019-01-21T15:20:16.244Z,32.27
2019-01-21T15:22:49.227Z,33.43
2019-01-21T15:25:39.309Z,34.73
2019-01-21T15:28:36.004Z,32.87
2019-01-21T15:31:10.827Z,35.80
2019-01-21T15:33:43.842Z,33.90
2019-01-21T15:36:14.940Z,43.97
2019-01-21T15:39:20.950Z,38.40
2019-01-21T15:42:08.624Z,34.63
2019-01-21T15:45:08.582Z,38.07
2019-01-21T15:48:05.223Z,38.93
2019-01-21T15:50:51.569Z,37.40
2019-01-21T15:53:42.107Z,36.30
2019-01-21T15:56:18.113Z,44.93
2019-01-21T15:58:50.752Z,36.80
2019-01-21T16:01:38.368Z,43.43
2019-01-21T16:04:28.816Z,36.07
2019-01-21T16:07:18.775Z,36.27
2019-01-21T16:10:15.525Z,34.83
2019-01-21T16:12:56.583Z,41.97
2019-01-21T16:15:44.179Z,39.40
2019-01-21T16:18:24.204Z,36.43
2019-01-21T16:21:17.645Z,38.80
2019-01-21T16:24:08.265Z,37.67
2019-01-21T16:26:45.853Z,39.63
2019-01-21T16:29:19.907Z,40.92
2019-01-21T16:31:53.763Z,39.50
2019-01-21T16:34:50.411Z,40.10
2019-01-21T16:37:53.404Z,36.03
2019-01-21T16:40:56.187Z,37.37
2019-01-21T16:43:24.645Z,42.60
2019-01-21T16:45:53.125Z,45.73
2019-01-21T16:48:21.616Z,43.55
2019-01-21T16:50:53.546Z,40.87
2019-01-21T16:53:22.030Z,50.47
2019-01-21T16:55:50.411Z,42.97
2019-01-21T16:58:18.863Z,39.60
2019-01-21T17:00:47.447Z,40.90
2019-01-21T17:03:15.915Z,40.13
2019-01-21T17:05:44.385Z,38.50
2019-01-21T17:08:12.893Z,42.17
2019-01-21T17:10:41.459Z,42.20
2019-01-21T17:13:09.908Z,39.37
2019-01-21T17:15:38.271Z,39.20
2019-01-21T17:18:06.716Z,42.57
2019-01-21T17:20:35.221Z,46.27
2019-01-21T17:23:03.720Z,39.13
2019-01-21T17:25:32.252Z,44.87
2019-01-21T17:28:01.840Z,48.80
2019-01-21T17:30:30.301Z,46.43
2019-01-21T17:32:58.671Z,39.70
2019-01-21T17:35:27.100Z,42.20
2019-01-21T17:37:55.536Z,42.37
2019-01-21T17:40:24.656Z,49.73
2019-01-21T17:42:53.107Z,45.73
2019-01-21T17:45:21.642Z,45.77
2019-01-21T17:47:50.067Z,52.33
2019-01-21T17:50:18.650Z,44.97
2019-01-21T17:52:49.656Z,49.37
2019-01-21T17:55:18.103Z,48.83
2019-01-21T17:57:47.803Z,48.73
2019-01-21T18:00:20.179Z,48.63
2019-01-21T18:02:48.603Z,45.87
2019-01-21T18:05:17.070Z,44.73
2019-01-21T18:07:45.439Z,46.53
2019-01-21T18:10:14.295Z,50.17
2019-01-21T18:12:42.731Z,45.10
2019-01-21T18:15:12.106Z,55.10
2019-01-21T18:17:40.529Z,50.67
2019-01-21T18:20:10.897Z,48.53
2019-01-21T18:22:39.379Z,52.33
2019-01-21T18:25:08.419Z,50.87
2019-01-21T18:27:36.871Z,55.63
2019-01-21T18:30:06.235Z,49.20
2019-01-21T18:32:34.635Z,50.70
2019-01-21T18:35:03.099Z,51.10
2019-01-21T18:37:31.535Z,47.33
2019-01-21T18:40:02.835Z,55.20
2019-01-21T18:42:31.259Z,52.50
2019-01-21T18:44:59.642Z,50.67
2019-01-21T18:47:28.116Z,51.23
2019-01-21T18:49:58.241Z,48.50
2019-01-21T18:52:27.145Z,50.03
2019-01-21T18:54:57.915Z,47.20
2019-01-21T18:57:26.602Z,53.20
2019-01-21T18:59:56.122Z,50.57
2019-01-21T19:02:25.723Z,46.67
2019-01-21T19:04:54.456Z,48.77
2019-01-21T19:07:23.043Z,52.13
2019-01-21T19:09:51.433Z,54.47
2019-01-21T19:12:20.403Z,46.23
2019-01-21T19:14:49.322Z,47.30
2019-01-21T19:17:17.771Z,52.73
2019-01-21T19:19:47.005Z,45.73
2019-01-21T19:22:16.732Z,49.77
2019-01-21T19:24:46.073Z,48.50
2019-01-21T19:27:14.659Z,52.67
2019-01-21T19:29:43.324Z,52.70
2019-01-21T19:32:11.831Z,48.00
2019-01-21T19:34:40.848Z,53.83
2019-01-21T19:37:09.778Z,52.87
2019-01-21T19:39:38.572Z,55.07
2019-01-21T19:42:07.025Z,45.90
2019-01-21T19:44:35.468Z,54.47
2019-01-21T19:47:04.221Z,55.70
2019-01-21T19:49:32.885Z,57.20
2019-01-21T19:52:02.555Z,52.90
2019-01-21T19:54:33.104Z,52.80
2019-01-21T19:57:01.575Z,52.30
2019-01-21T19:59:32.461Z,56.87
2019-01-21T20:02:01.595Z,56.80
2019-01-21T20:04:29.956Z,59.77
2019-01-21T20:06:58.578Z,55.23
2019-01-21T20:09:27.423Z,53.80
2019-01-21T20:11:58.984Z,57.20
2019-01-21T20:14:27.626Z,60.03
2019-01-21T20:16:56.295Z,56.60
2019-01-21T20:19:25.039Z,56.50
2019-01-21T20:21:54.352Z,51.57
2019-01-21T20:24:22.788Z,52.27
2019-01-21T20:26:51.707Z,50.97
2019-01-21T20:29:20.147Z,50.30
2019-01-21T20:31:48.988Z,57.87
2019-01-21T20:34:17.724Z,49.27
2019-01-21T20:36:46.182Z,49.37
2019-01-21T20:39:14.847Z,57.77
2019-01-21T20:41:43.705Z,51.80
2019-01-21T20:44:12.237Z,50.10
2019-01-21T20:46:44.388Z,54.10
2019-01-21T20:49:17.144Z,51.20
2019-01-21T20:51:46.095Z,49.50
2019-01-21T20:54:14.605Z,49.70
2019-01-21T20:56:44.350Z,49.40
2019-01-21T20:59:14.216Z,55.17
2019-01-21T21:01:42.859Z,59.53
2019-01-21T21:04:11.896Z,54.50
2019-01-21T21:06:40.910Z,52.97
2019-01-21T21:09:09.378Z,47.37
2019-01-21T21:11:37.812Z,47.63
2019-01-21T21:14:06.531Z,49.57
2019-01-21T21:16:35.424Z,52.63
2019-01-21T21:19:03.914Z,55.43
2019-01-21T21:21:32.347Z,58.37
2019-01-21T21:24:01.745Z,56.80
2019-01-21T21:26:30.848Z,54.87
2019-01-21T21:28:59.295Z,56.47
2019-01-21T21:31:27.752Z,51.03
2019-01-21T21:33:56.636Z,54.00
2019-01-21T21:36:27.313Z,55.27
2019-01-21T21:38:55.755Z,53.90
2019-01-21T21:41:24.360Z,56.93
2019-01-21T21:43:53.864Z,53.03
2019-01-21T21:46:22.547Z,52.43
2019-01-21T21:48:51.022Z,50.67
2019-01-21T21:51:19.520Z,56.17
2019-01-21T21:53:48.038Z,57.57
2019-01-21T21:56:16.644Z,49.53
2019-01-21T21:58:45.361Z,55.67
2019-01-21T22:01:13.885Z,48.37
2019-01-21T22:03:44.812Z,55.13
2019-01-21T22:06:13.263Z,50.30
2019-01-21T22:08:41.643Z,49.83
2019-01-21T22:11:12.159Z,51.30
2019-01-21T22:13:40.624Z,52.47
2019-01-21T22:16:08.964Z,53.57
2019-01-21T22:18:43.631Z,51.67
2019-01-21T22:21:11.971Z,50.87
2019-01-21T22:23:40.323Z,49.23
2019-01-21T22:26:08.784Z,52.83
2019-01-21T22:28:37.243Z,51.77
2019-01-21T22:31:05.708Z,53.90
2019-01-21T22:33:34.168Z,62.03
2019-01-21T22:36:02.531Z,48.10
2019-01-21T22:38:30.887Z,50.50
2019-01-21T22:40:59.487Z,55.73
2019-01-21T22:43:28.010Z,51.87
2019-01-21T22:45:56.436Z,53.33
2019-01-21T22:48:24.879Z,54.17
2019-01-21T22:50:53.319Z,59.73
2019-01-21T22:53:21.747Z,54.03
2019-01-21T22:55:50.203Z,55.73
2019-01-21T22:58:18.679Z,57.53
2019-01-21T23:01:21.375Z,55.77
2019-01-21T23:03:50.348Z,53.10
2019-01-21T23:06:18.808Z,58.53
2019-01-21T23:08:47.284Z,54.37
2019-01-21T23:11:15.647Z,58.03
2019-01-21T23:13:44.166Z,57.40
2019-01-21T23:16:12.643Z,51.83
2019-01-21T23:18:41.067Z,58.53
2019-01-21T23:21:09.499Z,56.60
2019-01-21T23:23:37.864Z,55.23
2019-01-21T23:26:06.304Z,60.00
2019-01-21T23:28:34.743Z,53.97
2019-01-21T23:31:03.456Z,65.07
2019-01-21T23:33:31.855Z,57.43
2019-01-21T23:36:00.309Z,61.77
2019-01-21T23:38:28.762Z,58.63
2019-01-21T23:40:57.176Z,57.97
2019-01-21T23:43:25.611Z,67.03
2019-01-21T23:45:54.095Z,59.83
2019-01-21T23:48:22.539Z,58.80
2019-01-21T23:50:50.983Z,58.90
2019-01-21T23:53:19.419Z,60.07
2019-01-21T23:55:47.842Z,62.27
2019-01-21T23:58:16.220Z,63.50
